sensor_id;sensor_type;location;lat;lon;timestamp;P1;durP1;ratioP1;P2;durP2;ratioP2
69551;SDS011;58993;45.320;11.864;2022-07-03T00:00:43;4.30;;;3.00;;
69551;SDS011;58993;45.320;11.864;2022-07-03T00:03:09;4.30;;;2.70;;
69551;SDS011;58993;45.320;11.864;2022-07-03T00:05:35;4.60;;;3.20;;
69551;SDS011;58993;45.320;11.864;2022-07-03T00:08:02;4.20;;;3.00;;
69551;SDS011;58993;45.320;11.864;2022-07-03T00:10:29;4.30;;;2.90;;
69551;SDS011;58993;45.320;11.864;2022-07-03T00:12:55;4.80;;;2.90;;
69551;SDS011;58993;45.320;11.864;2022-07-03T00:15:20;4.60;;;3.10;;
69551;SDS011;58993;45.320;11.864;2022-07-03T00:17:46;5.60;;;3.10;;
69551;SDS011;58993;45.320;11.864;2022-07-03T00:20:12;5.80;;;3.20;;
69551;SDS011;58993;45.320;11.864;2022-07-03T00:22:40;5.60;;;3.20;;
69551;SDS011;58993;45.320;11.864;2022-07-03T00:25:08;6.80;;;3.50;;
69551;SDS011;58993;45.320;11.864;2022-07-03T00:27:36;4.30;;;3.00;;
69551;SDS011;58993;45.320;11.864;2022-07-03T00:30:04;4.70;;;3.20;;
69551;SDS011;58993;45.320;11.864;2022-07-03T00:32:37;4.50;;;2.90;;
69551;SDS011;58993;45.320;11.864;2022-07-03T00:35:04;3.90;;;2.80;;
69551;SDS011;58993;45.320;11.864;2022-07-03T00:37:32;5.00;;;3.20;;
69551;SDS011;58993;45.320;11.864;2022-07-03T00:39:57;5.80;;;3.30;;
69551;SDS011;58993;45.320;11.864;2022-07-03T00:42:23;5.50;;;3.20;;
69551;SDS011;58993;45.320;11.864;2022-07-03T00:44:53;4.30;;;3.00;;
69551;SDS011;58993;45.320;11.864;2022-07-03T00:47:22;5.20;;;3.30;;
69551;SDS011;58993;45.320;11.864;2022-07-03T00:49:51;6.30;;;3.30;;
69551;SDS011;58993;45.320;11.864;2022-07-03T00:52:19;7.30;;;3.40;;
69551;SDS011;58993;45.320;11.864;2022-07-03T00:54:53;4.50;;;3.10;;
69551;SDS011;58993;45.320;11.864;2022-07-03T00:57:21;4.60;;;3.20;;
69551;SDS011;58993;45.320;11.864;2022-07-03T00:59:48;4.90;;;3.10;;
69551;SDS011;58993;45.320;11.864;2022-07-03T01:05:10;5.10;;;3.30;;
69551;SDS011;58993;45.320;11.864;2022-07-03T01:07:51;4.20;;;3.20;;
69551;SDS011;58993;45.320;11.864;2022-07-03T01:16:09;5.30;;;3.10;;
69551;SDS011;58993;45.320;11.864;2022-07-03T01:18:54;4.20;;;3.00;;
69551;SDS011;58993;45.320;11.864;2022-07-03T01:21:31;4.60;;;3.10;;
69551;SDS011;58993;45.320;11.864;2022-07-03T01:26:45;4.70;;;3.30;;
69551;SDS011;58993;45.320;11.864;2022-07-03T01:29:21;5.40;;;3.00;;
69551;SDS011;58993;45.320;11.864;2022-07-03T01:31:54;3.70;;;3.00;;
69551;SDS011;58993;45.320;11.864;2022-07-03T01:34:24;3.90;;;3.10;;
69551;SDS011;58993;45.320;11.864;2022-07-03T01:36:53;4.20;;;3.10;;
69551;SDS011;58993;45.320;11.864;2022-07-03T01:39:24;5.20;;;3.00;;
69551;SDS011;58993;45.320;11.864;2022-07-03T01:41:52;5.40;;;3.30;;
69551;SDS011;58993;45.320;11.864;2022-07-03T01:44:18;4.40;;;3.00;;
69551;SDS011;58993;45.320;11.864;2022-07-03T01:46:48;4.70;;;3.20;;
69551;SDS011;58993;45.320;11.864;2022-07-03T01:49:14;5.10;;;3.00;;
69551;SDS011;58993;45.320;11.864;2022-07-03T01:51:41;6.80;;;3.20;;
69551;SDS011;58993;45.320;11.864;2022-07-03T01:54:09;4.80;;;3.10;;
69551;SDS011;58993;45.320;11.864;2022-07-03T01:56:36;7.20;;;3.20;;
69551;SDS011;58993;45.320;11.864;2022-07-03T01:59:02;4.30;;;3.20;;
69551;SDS011;58993;45.320;11.864;2022-07-03T02:01:45;4.20;;;3.10;;
69551;SDS011;58993;45.320;11.864;2022-07-03T02:12:29;4.30;;;3.20;;
69551;SDS011;58993;45.320;11.864;2022-07-03T02:15:21;5.20;;;3.40;;
69551;SDS011;58993;45.320;11.864;2022-07-03T02:17:56;5.00;;;2.70;;
69551;SDS011;58993;45.320;11.864;2022-07-03T02:20:25;5.30;;;3.20;;
69551;SDS011;58993;45.320;11.864;2022-07-03T02:22:57;4.00;;;3.00;;
69551;SDS011;58993;45.320;11.864;2022-07-03T02:28:09;4.80;;;3.30;;
69551;SDS011;58993;45.320;11.864;2022-07-03T02:30:39;5.10;;;2.90;;
69551;SDS011;58993;45.320;11.864;2022-07-03T02:33:09;3.70;;;2.90;;
69551;SDS011;58993;45.320;11.864;2022-07-03T02:35:36;4.70;;;3.20;;
69551;SDS011;58993;45.320;11.864;2022-07-03T02:40:56;5.10;;;3.20;;
69551;SDS011;58993;45.320;11.864;2022-07-03T02:43:43;4.20;;;3.00;;
69551;SDS011;58993;45.320;11.864;2022-07-03T02:46:21;4.00;;;3.10;;
69551;SDS011;58993;45.320;11.864;2022-07-03T02:49:33;4.30;;;3.10;;
69551;SDS011;58993;45.320;11.864;2022-07-03T02:52:24;4.30;;;3.00;;
69551;SDS011;58993;45.320;11.864;2022-07-03T02:54:57;5.10;;;3.40;;
69551;SDS011;58993;45.320;11.864;2022-07-03T02:57:44;4.80;;;3.10;;
69551;SDS011;58993;45.320;11.864;2022-07-03T03:00:11;5.00;;;3.10;;
69551;SDS011;58993;45.320;11.864;2022-07-03T03:02:51;3.70;;;3.20;;
69551;SDS011;58993;45.320;11.864;2022-07-03T03:07:52;4.70;;;3.30;;
69551;SDS011;58993;45.320;11.864;2022-07-03T03:10:26;3.60;;;2.80;;
69551;SDS011;58993;45.320;11.864;2022-07-03T03:12:58;4.30;;;3.20;;
69551;SDS011;58993;45.320;11.864;2022-07-03T03:15:30;4.10;;;3.40;;
69551;SDS011;58993;45.320;11.864;2022-07-03T03:18:00;3.80;;;3.10;;
69551;SDS011;58993;45.320;11.864;2022-07-03T03:20:32;5.70;;;3.30;;
69551;SDS011;58993;45.320;11.864;2022-07-03T03:23:09;5.20;;;3.30;;
69551;SDS011;58993;45.320;11.864;2022-07-03T03:25:38;5.00;;;3.20;;
69551;SDS011;58993;45.320;11.864;2022-07-03T03:28:04;5.20;;;3.50;;
69551;SDS011;58993;45.320;11.864;2022-07-03T03:30:30;4.50;;;3.20;;
69551;SDS011;58993;45.320;11.864;2022-07-03T03:32:56;4.00;;;3.10;;
69551;SDS011;58993;45.320;11.864;2022-07-03T03:35:22;3.70;;;3.00;;
69551;SDS011;58993;45.320;11.864;2022-07-03T03:37:48;4.70;;;3.40;;
69551;SDS011;58993;45.320;11.864;2022-07-03T03:40:15;5.50;;;3.00;;
69551;SDS011;58993;45.320;11.864;2022-07-03T03:42:42;13.40;;;3.90;;
69551;SDS011;58993;45.320;11.864;2022-07-03T03:45:09;11.50;;;3.80;;
69551;SDS011;58993;45.320;11.864;2022-07-03T03:47:35;13.20;;;4.00;;
69551;SDS011;58993;45.320;11.864;2022-07-03T03:50:01;13.50;;;4.10;;
69551;SDS011;58993;45.320;11.864;2022-07-03T03:52:28;8.40;;;3.70;;
69551;SDS011;58993;45.320;11.864;2022-07-03T03:54:55;10.70;;;3.80;;
69551;SDS011;58993;45.320;11.864;2022-07-03T03:57:21;7.90;;;3.10;;
69551;SDS011;58993;45.320;11.864;2022-07-03T03:59:49;5.70;;;3.50;;
69551;SDS011;58993;45.320;11.864;2022-07-03T04:02:17;6.30;;;3.70;;
69551;SDS011;58993;45.320;11.864;2022-07-03T04:04:43;7.00;;;3.50;;
69551;SDS011;58993;45.320;11.864;2022-07-03T04:07:09;6.20;;;3.80;;
69551;SDS011;58993;45.320;11.864;2022-07-03T04:09:35;6.80;;;3.70;;
69551;SDS011;58993;45.320;11.864;2022-07-03T04:12:02;6.80;;;3.70;;
69551;SDS011;58993;45.320;11.864;2022-07-03T04:14:28;6.00;;;3.50;;
69551;SDS011;58993;45.320;11.864;2022-07-03T04:16:54;7.40;;;4.00;;
69551;SDS011;58993;45.320;11.864;2022-07-03T04:19:19;5.00;;;3.90;;
69551;SDS011;58993;45.320;11.864;2022-07-03T04:21:46;8.10;;;4.00;;
69551;SDS011;58993;45.320;11.864;2022-07-03T04:24:12;5.00;;;3.80;;
69551;SDS011;58993;45.320;11.864;2022-07-03T04:26:38;5.20;;;3.80;;
69551;SDS011;58993;45.320;11.864;2022-07-03T04:29:03;5.60;;;3.70;;
69551;SDS011;58993;45.320;11.864;2022-07-03T04:31:29;6.10;;;3.90;;
69551;SDS011;58993;45.320;11.864;2022-07-03T04:33:55;6.90;;;3.90;;
69551;SDS011;58993;45.320;11.864;2022-07-03T04:36:20;6.10;;;4.00;;
69551;SDS011;58993;45.320;11.864;2022-07-03T04:38:46;6.60;;;3.80;;
69551;SDS011;58993;45.320;11.864;2022-07-03T04:41:11;5.30;;;4.10;;
69551;SDS011;58993;45.320;11.864;2022-07-03T04:43:38;5.00;;;3.80;;
69551;SDS011;58993;45.320;11.864;2022-07-03T04:46:04;5.10;;;4.20;;
69551;SDS011;58993;45.320;11.864;2022-07-03T04:48:30;6.30;;;3.40;;
69551;SDS011;58993;45.320;11.864;2022-07-03T04:50:56;5.00;;;3.70;;
69551;SDS011;58993;45.320;11.864;2022-07-03T04:53:23;7.30;;;3.60;;
69551;SDS011;58993;45.320;11.864;2022-07-03T04:55:49;6.60;;;3.90;;
69551;SDS011;58993;45.320;11.864;2022-07-03T04:58:14;5.40;;;3.90;;
69551;SDS011;58993;45.320;11.864;2022-07-03T05:00:40;7.20;;;3.80;;
69551;SDS011;58993;45.320;11.864;2022-07-03T05:03:08;5.60;;;3.70;;
69551;SDS011;58993;45.320;11.864;2022-07-03T05:05:34;5.60;;;4.10;;
69551;SDS011;58993;45.320;11.864;2022-07-03T05:08:00;5.60;;;3.80;;
69551;SDS011;58993;45.320;11.864;2022-07-03T05:10:26;5.10;;;3.50;;
69551;SDS011;58993;45.320;11.864;2022-07-03T05:12:52;5.70;;;3.50;;
69551;SDS011;58993;45.320;11.864;2022-07-03T05:15:19;6.90;;;3.70;;
69551;SDS011;58993;45.320;11.864;2022-07-03T05:17:45;5.20;;;3.50;;
69551;SDS011;58993;45.320;11.864;2022-07-03T05:20:11;5.20;;;3.60;;
69551;SDS011;58993;45.320;11.864;2022-07-03T05:22:53;8.00;;;3.80;;
69551;SDS011;58993;45.320;11.864;2022-07-03T05:25:21;5.70;;;3.70;;
69551;SDS011;58993;45.320;11.864;2022-07-03T05:27:47;6.10;;;3.70;;
69551;SDS011;58993;45.320;11.864;2022-07-03T05:30:15;7.80;;;3.70;;
69551;SDS011;58993;45.320;11.864;2022-07-03T05:32:42;4.80;;;3.30;;
69551;SDS011;58993;45.320;11.864;2022-07-03T05:35:08;5.70;;;3.60;;
69551;SDS011;58993;45.320;11.864;2022-07-03T05:37:34;5.70;;;3.20;;
69551;SDS011;58993;45.320;11.864;2022-07-03T05:40:00;4.70;;;3.20;;
69551;SDS011;58993;45.320;11.864;2022-07-03T05:42:26;6.00;;;3.50;;
69551;SDS011;58993;45.320;11.864;2022-07-03T05:44:52;6.10;;;3.70;;
69551;SDS011;58993;45.320;11.864;2022-07-03T05:47:19;4.30;;;3.40;;
69551;SDS011;58993;45.320;11.864;2022-07-03T05:49:45;3.80;;;3.10;;
69551;SDS011;58993;45.320;11.864;2022-07-03T05:52:11;4.50;;;3.20;;
69551;SDS011;58993;45.320;11.864;2022-07-03T05:54:37;5.40;;;3.40;;
69551;SDS011;58993;45.320;11.864;2022-07-03T05:57:02;4.20;;;3.30;;
69551;SDS011;58993;45.320;11.864;2022-07-03T05:59:30;4.60;;;3.20;;
69551;SDS011;58993;45.320;11.864;2022-07-03T06:01:55;7.00;;;3.40;;
69551;SDS011;58993;45.320;11.864;2022-07-03T06:04:21;4.70;;;3.50;;
69551;SDS011;58993;45.320;11.864;2022-07-03T06:06:47;3.60;;;3.10;;
69551;SDS011;58993;45.320;11.864;2022-07-03T06:09:12;4.00;;;3.30;;
69551;SDS011;58993;45.320;11.864;2022-07-03T06:11:38;4.20;;;3.50;;
69551;SDS011;58993;45.320;11.864;2022-07-03T06:14:04;4.70;;;3.20;;
69551;SDS011;58993;45.320;11.864;2022-07-03T06:16:30;4.20;;;3.20;;
69551;SDS011;58993;45.320;11.864;2022-07-03T06:18:55;4.80;;;3.20;;
69551;SDS011;58993;45.320;11.864;2022-07-03T06:21:21;4.00;;;3.60;;
69551;SDS011;58993;45.320;11.864;2022-07-03T06:23:48;4.80;;;3.20;;
69551;SDS011;58993;45.320;11.864;2022-07-03T06:26:14;4.40;;;3.30;;
69551;SDS011;58993;45.320;11.864;2022-07-03T06:28:40;4.60;;;3.30;;
69551;SDS011;58993;45.320;11.864;2022-07-03T06:31:07;5.40;;;3.30;;
69551;SDS011;58993;45.320;11.864;2022-07-03T06:33:32;5.40;;;3.10;;
69551;SDS011;58993;45.320;11.864;2022-07-03T06:35:58;6.00;;;3.00;;
69551;SDS011;58993;45.320;11.864;2022-07-03T06:38:24;5.10;;;3.30;;
69551;SDS011;58993;45.320;11.864;2022-07-03T06:40:49;4.60;;;3.10;;
69551;SDS011;58993;45.320;11.864;2022-07-03T06:43:15;4.30;;;3.20;;
69551;SDS011;58993;45.320;11.864;2022-07-03T06:45:41;4.40;;;3.10;;
69551;SDS011;58993;45.320;11.864;2022-07-03T06:48:06;4.40;;;3.10;;
69551;SDS011;58993;45.320;11.864;2022-07-03T06:50:33;4.70;;;3.30;;
69551;SDS011;58993;45.320;11.864;2022-07-03T06:52:59;4.50;;;3.10;;
69551;SDS011;58993;45.320;11.864;2022-07-03T06:55:26;4.20;;;2.70;;
69551;SDS011;58993;45.320;11.864;2022-07-03T06:57:52;4.50;;;2.80;;
69551;SDS011;58993;45.320;11.864;2022-07-03T07:00:18;4.70;;;3.20;;
69551;SDS011;58993;45.320;11.864;2022-07-03T07:02:44;4.00;;;3.20;;
69551;SDS011;58993;45.320;11.864;2022-07-03T07:05:10;4.20;;;3.00;;
69551;SDS011;58993;45.320;11.864;2022-07-03T07:07:36;4.30;;;2.80;;
69551;SDS011;58993;45.320;11.864;2022-07-03T07:10:01;5.00;;;3.00;;
69551;SDS011;58993;45.320;11.864;2022-07-03T07:12:28;3.90;;;2.80;;
69551;SDS011;58993;45.320;11.864;2022-07-03T07:14:53;4.20;;;3.00;;
69551;SDS011;58993;45.320;11.864;2022-07-03T07:17:19;4.50;;;2.90;;
69551;SDS011;58993;45.320;11.864;2022-07-03T07:19:45;3.50;;;3.10;;
69551;SDS011;58993;45.320;11.864;2022-07-03T07:22:11;6.20;;;2.90;;
69551;SDS011;58993;45.320;11.864;2022-07-03T07:24:37;4.50;;;2.60;;
69551;SDS011;58993;45.320;11.864;2022-07-03T07:27:02;4.30;;;3.00;;
69551;SDS011;58993;45.320;11.864;2022-07-03T07:29:29;4.70;;;3.30;;
69551;SDS011;58993;45.320;11.864;2022-07-03T07:31:54;3.90;;;2.90;;
69551;SDS011;58993;45.320;11.864;2022-07-03T07:34:21;7.00;;;3.20;;
69551;SDS011;58993;45.320;11.864;2022-07-03T07:36:46;4.40;;;2.80;;
69551;SDS011;58993;45.320;11.864;2022-07-03T07:39:12;3.20;;;2.60;;
69551;SDS011;58993;45.320;11.864;2022-07-03T07:41:38;3.60;;;2.90;;
69551;SDS011;58993;45.320;11.864;2022-07-03T07:44:04;3.70;;;2.80;;
69551;SDS011;58993;45.320;11.864;2022-07-03T07:46:31;5.00;;;3.00;;
69551;SDS011;58993;45.320;11.864;2022-07-03T07:48:57;3.50;;;2.70;;
69551;SDS011;58993;45.320;11.864;2022-07-03T07:51:23;4.90;;;3.10;;
69551;SDS011;58993;45.320;11.864;2022-07-03T07:53:49;3.60;;;2.80;;
69551;SDS011;58993;45.320;11.864;2022-07-03T07:56:17;4.70;;;3.00;;
69551;SDS011;58993;45.320;11.864;2022-07-03T07:58:43;4.40;;;2.80;;
69551;SDS011;58993;45.320;11.864;2022-07-03T08:01:09;3.80;;;2.50;;
69551;SDS011;58993;45.320;11.864;2022-07-03T08:04:04;4.30;;;2.90;;
69551;SDS011;58993;45.320;11.864;2022-07-03T08:06:49;3.50;;;2.40;;
69551;SDS011;58993;45.320;11.864;2022-07-03T08:09:15;4.20;;;2.60;;
69551;SDS011;58993;45.320;11.864;2022-07-03T08:11:41;5.00;;;2.80;;
69551;SDS011;58993;45.320;11.864;2022-07-03T08:14:07;4.80;;;2.50;;
69551;SDS011;58993;45.320;11.864;2022-07-03T08:16:36;3.60;;;2.30;;
69551;SDS011;58993;45.320;11.864;2022-07-03T08:19:06;5.20;;;2.70;;
69551;SDS011;58993;45.320;11.864;2022-07-03T08:21:32;2.70;;;2.30;;
69551;SDS011;58993;45.320;11.864;2022-07-03T08:23:58;3.60;;;2.40;;
69551;SDS011;58993;45.320;11.864;2022-07-03T08:26:24;3.50;;;2.50;;
69551;SDS011;58993;45.320;11.864;2022-07-03T08:28:50;3.30;;;2.50;;
69551;SDS011;58993;45.320;11.864;2022-07-03T08:31:15;4.00;;;2.50;;
69551;SDS011;58993;45.320;11.864;2022-07-03T08:33:41;4.30;;;2.20;;
69551;SDS011;58993;45.320;11.864;2022-07-03T08:36:07;4.20;;;2.50;;
69551;SDS011;58993;45.320;11.864;2022-07-03T08:38:33;3.90;;;2.40;;
69551;SDS011;58993;45.320;11.864;2022-07-03T08:41:00;3.10;;;2.30;;
69551;SDS011;58993;45.320;11.864;2022-07-03T08:43:28;3.10;;;2.40;;
69551;SDS011;58993;45.320;11.864;2022-07-03T08:45:55;5.10;;;2.70;;
69551;SDS011;58993;45.320;11.864;2022-07-03T08:48:24;4.00;;;2.30;;
69551;SDS011;58993;45.320;11.864;2022-07-03T08:50:50;4.10;;;2.60;;
69551;SDS011;58993;45.320;11.864;2022-07-03T08:53:18;3.30;;;2.40;;
69551;SDS011;58993;45.320;11.864;2022-07-03T08:55:45;3.70;;;2.60;;
69551;SDS011;58993;45.320;11.864;2022-07-03T08:58:13;2.90;;;2.20;;
69551;SDS011;58993;45.320;11.864;2022-07-03T09:00:40;5.40;;;2.60;;
69551;SDS011;58993;45.320;11.864;2022-07-03T09:03:11;5.30;;;2.60;;
69551;SDS011;58993;45.320;11.864;2022-07-03T09:05:38;3.80;;;2.40;;
69551;SDS011;58993;45.320;11.864;2022-07-03T09:08:08;3.90;;;2.40;;
69551;SDS011;58993;45.320;11.864;2022-07-03T09:10:34;4.30;;;2.40;;
69551;SDS011;58993;45.320;11.864;2022-07-03T09:13:00;3.30;;;2.10;;
69551;SDS011;58993;45.320;11.864;2022-07-03T09:15:26;5.80;;;2.40;;
69551;SDS011;58993;45.320;11.864;2022-07-03T09:17:56;3.70;;;2.30;;
69551;SDS011;58993;45.320;11.864;2022-07-03T09:20:30;4.60;;;2.50;;
69551;SDS011;58993;45.320;11.864;2022-07-03T09:23:10;3.90;;;2.50;;
69551;SDS011;58993;45.320;11.864;2022-07-03T09:25:56;4.40;;;2.40;;
69551;SDS011;58993;45.320;11.864;2022-07-03T09:28:24;4.20;;;2.50;;
69551;SDS011;58993;45.320;11.864;2022-07-03T09:31:17;3.40;;;2.40;;
69551;SDS011;58993;45.320;11.864;2022-07-03T09:33:52;3.40;;;2.50;;
69551;SDS011;58993;45.320;11.864;2022-07-03T09:36:36;4.30;;;2.70;;
69551;SDS011;58993;45.320;11.864;2022-07-03T09:39:21;3.50;;;2.50;;
69551;SDS011;58993;45.320;11.864;2022-07-03T09:41:52;2.80;;;2.00;;
69551;SDS011;58993;45.320;11.864;2022-07-03T09:44:32;5.40;;;2.40;;
69551;SDS011;58993;45.320;11.864;2022-07-03T09:47:17;3.40;;;2.30;;
69551;SDS011;58993;45.320;11.864;2022-07-03T09:49:52;6.00;;;2.60;;
69551;SDS011;58993;45.320;11.864;2022-07-03T09:52:27;6.00;;;2.40;;
69551;SDS011;58993;45.320;11.864;2022-07-03T09:55:02;2.80;;;2.30;;
69551;SDS011;58993;45.320;11.864;2022-07-03T09:57:37;4.50;;;2.50;;
69551;SDS011;58993;45.320;11.864;2022-07-03T10:03:05;3.60;;;2.50;;
69551;SDS011;58993;45.320;11.864;2022-07-03T10:05:38;2.80;;;2.20;;
69551;SDS011;58993;45.320;11.864;2022-07-03T10:08:05;3.50;;;2.40;;
69551;SDS011;58993;45.320;11.864;2022-07-03T10:10:35;3.50;;;2.70;;
69551;SDS011;58993;45.320;11.864;2022-07-03T10:13:06;25.80;;;6.00;;
69551;SDS011;58993;45.320;11.864;2022-07-03T10:15:34;45.10;;;11.40;;
69551;SDS011;58993;45.320;11.864;2022-07-03T10:18:03;62.20;;;12.00;;
69551;SDS011;58993;45.320;11.864;2022-07-03T10:20:54;60.30;;;11.60;;
69551;SDS011;58993;45.320;11.864;2022-07-03T10:23:22;53.30;;;10.60;;
69551;SDS011;58993;45.320;11.864;2022-07-03T10:25:51;43.00;;;10.00;;
69551;SDS011;58993;45.320;11.864;2022-07-03T10:28:17;48.70;;;10.30;;
69551;SDS011;58993;45.320;11.864;2022-07-03T10:30:44;55.30;;;11.20;;
69551;SDS011;58993;45.320;11.864;2022-07-03T10:33:12;63.00;;;15.20;;
69551;SDS011;58993;45.320;11.864;2022-07-03T10:35:38;32.70;;;7.50;;
69551;SDS011;58993;45.320;11.864;2022-07-03T10:43:40;33.30;;;7.50;;
69551;SDS011;58993;45.320;11.864;2022-07-03T10:46:25;23.00;;;6.80;;
69551;SDS011;58993;45.320;11.864;2022-07-03T10:48:56;22.10;;;7.70;;
69551;SDS011;58993;45.320;11.864;2022-07-03T10:51:30;18.60;;;5.60;;
69551;SDS011;58993;45.320;11.864;2022-07-03T10:54:16;16.60;;;4.90;;
69551;SDS011;58993;45.320;11.864;2022-07-03T11:26:18;6.50;;;3.70;;
69551;SDS011;58993;45.320;11.864;2022-07-03T11:36:29;9.30;;;4.00;;
69551;SDS011;58993;45.320;11.864;2022-07-03T11:41:28;8.10;;;3.60;;
69551;SDS011;58993;45.320;11.864;2022-07-03T11:43:57;6.80;;;3.20;;
69551;SDS011;58993;45.320;11.864;2022-07-03T11:46:25;9.00;;;3.30;;
69551;SDS011;58993;45.320;11.864;2022-07-03T11:49:12;8.70;;;3.30;;
69551;SDS011;58993;45.320;11.864;2022-07-03T11:51:43;6.70;;;3.30;;
69551;SDS011;58993;45.320;11.864;2022-07-03T11:54:20;6.20;;;3.30;;
69551;SDS011;58993;45.320;11.864;2022-07-03T11:56:45;5.70;;;3.40;;
69551;SDS011;58993;45.320;11.864;2022-07-03T11:59:13;7.70;;;3.40;;
69551;SDS011;58993;45.320;11.864;2022-07-03T12:01:39;4.90;;;3.40;;
69551;SDS011;58993;45.320;11.864;2022-07-03T12:04:09;7.30;;;3.60;;
69551;SDS011;58993;45.320;11.864;2022-07-03T12:06:57;5.60;;;3.30;;
69551;SDS011;58993;45.320;11.864;2022-07-03T12:09:26;7.80;;;3.20;;
69551;SDS011;58993;45.320;11.864;2022-07-03T12:17:06;9.50;;;3.30;;
69551;SDS011;58993;45.320;11.864;2022-07-03T12:19:34;4.30;;;2.80;;
69551;SDS011;58993;45.320;11.864;2022-07-03T12:22:01;5.30;;;3.20;;
69551;SDS011;58993;45.320;11.864;2022-07-03T12:24:26;5.10;;;3.10;;
69551;SDS011;58993;45.320;11.864;2022-07-03T12:26:53;5.20;;;3.80;;
69551;SDS011;58993;45.320;11.864;2022-07-03T12:29:20;7.00;;;3.20;;
69551;SDS011;58993;45.320;11.864;2022-07-03T12:31:47;4.20;;;2.80;;
69551;SDS011;58993;45.320;11.864;2022-07-03T12:34:14;6.30;;;3.00;;
69551;SDS011;58993;45.320;11.864;2022-07-03T12:36:58;5.70;;;3.20;;
69551;SDS011;58993;45.320;11.864;2022-07-03T12:39:41;7.10;;;3.10;;
69551;SDS011;58993;45.320;11.864;2022-07-03T12:42:20;5.10;;;2.80;;
69551;SDS011;58993;45.320;11.864;2022-07-03T12:45:03;5.00;;;3.10;;
69551;SDS011;58993;45.320;11.864;2022-07-03T12:47:32;6.90;;;3.10;;
69551;SDS011;58993;45.320;11.864;2022-07-03T12:49:58;6.90;;;3.20;;
69551;SDS011;58993;45.320;11.864;2022-07-03T12:52:32;7.00;;;3.00;;
69551;SDS011;58993;45.320;11.864;2022-07-03T12:55:07;5.30;;;3.10;;
69551;SDS011;58993;45.320;11.864;2022-07-03T12:58:09;6.00;;;3.30;;
69551;SDS011;58993;45.320;11.864;2022-07-03T13:00:54;5.40;;;3.20;;
69551;SDS011;58993;45.320;11.864;2022-07-03T13:03:28;4.80;;;3.20;;
69551;SDS011;58993;45.320;11.864;2022-07-03T13:05:54;4.60;;;3.00;;
69551;SDS011;58993;45.320;11.864;2022-07-03T13:08:19;5.60;;;3.20;;
69551;SDS011;58993;45.320;11.864;2022-07-03T13:10:53;4.30;;;3.00;;
69551;SDS011;58993;45.320;11.864;2022-07-03T13:13:23;3.50;;;2.90;;
69551;SDS011;58993;45.320;11.864;2022-07-03T13:15:51;6.50;;;2.90;;
69551;SDS011;58993;45.320;11.864;2022-07-03T13:18:18;5.40;;;2.90;;
69551;SDS011;58993;45.320;11.864;2022-07-03T13:20:44;3.90;;;2.70;;
69551;SDS011;58993;45.320;11.864;2022-07-03T13:23:10;10.50;;;3.50;;
69551;SDS011;58993;45.320;11.864;2022-07-03T13:25:37;5.60;;;3.00;;
69551;SDS011;58993;45.320;11.864;2022-07-03T13:28:12;5.40;;;3.20;;
69551;SDS011;58993;45.320;11.864;2022-07-03T13:30:40;5.20;;;3.00;;
69551;SDS011;58993;45.320;11.864;2022-07-03T13:33:07;4.90;;;3.20;;
69551;SDS011;58993;45.320;11.864;2022-07-03T13:35:34;4.10;;;3.10;;
69551;SDS011;58993;45.320;11.864;2022-07-03T13:38:01;4.90;;;3.30;;
69551;SDS011;58993;45.320;11.864;2022-07-03T13:40:27;5.60;;;3.20;;
69551;SDS011;58993;45.320;11.864;2022-07-03T13:42:53;4.80;;;3.10;;
69551;SDS011;58993;45.320;11.864;2022-07-03T13:48:31;5.60;;;3.30;;
69551;SDS011;58993;45.320;11.864;2022-07-03T13:50:57;5.70;;;3.40;;
69551;SDS011;58993;45.320;11.864;2022-07-03T13:53:22;8.40;;;3.70;;
69551;SDS011;58993;45.320;11.864;2022-07-03T13:55:49;5.80;;;3.70;;
69551;SDS011;58993;45.320;11.864;2022-07-03T13:58:16;6.20;;;3.80;;
69551;SDS011;58993;45.320;11.864;2022-07-03T14:00:42;6.40;;;3.70;;
69551;SDS011;58993;45.320;11.864;2022-07-03T14:03:08;6.40;;;3.50;;
69551;SDS011;58993;45.320;11.864;2022-07-03T14:05:34;5.40;;;3.60;;
69551;SDS011;58993;45.320;11.864;2022-07-03T14:08:00;4.30;;;3.60;;
69551;SDS011;58993;45.320;11.864;2022-07-03T14:10:26;5.70;;;3.30;;
69551;SDS011;58993;45.320;11.864;2022-07-03T14:12:51;7.90;;;4.00;;
69551;SDS011;58993;45.320;11.864;2022-07-03T14:15:19;6.80;;;3.80;;
69551;SDS011;58993;45.320;11.864;2022-07-03T14:17:44;7.50;;;3.80;;
69551;SDS011;58993;45.320;11.864;2022-07-03T14:20:10;8.80;;;3.70;;
69551;SDS011;58993;45.320;11.864;2022-07-03T14:22:37;5.90;;;3.70;;
69551;SDS011;58993;45.320;11.864;2022-07-03T14:25:03;6.10;;;3.60;;
69551;SDS011;58993;45.320;11.864;2022-07-03T14:27:30;6.90;;;3.80;;
69551;SDS011;58993;45.320;11.864;2022-07-03T14:30:14;9.50;;;3.90;;
69551;SDS011;58993;45.320;11.864;2022-07-03T14:32:59;5.80;;;3.60;;
69551;SDS011;58993;45.320;11.864;2022-07-03T14:35:24;6.30;;;3.50;;
69551;SDS011;58993;45.320;11.864;2022-07-03T14:37:51;5.80;;;3.60;;
69551;SDS011;58993;45.320;11.864;2022-07-03T14:40:17;6.20;;;4.60;;
69551;SDS011;58993;45.320;11.864;2022-07-03T14:42:43;5.70;;;3.80;;
69551;SDS011;58993;45.320;11.864;2022-07-03T14:45:09;5.70;;;3.70;;
69551;SDS011;58993;45.320;11.864;2022-07-03T14:47:36;5.00;;;3.60;;
69551;SDS011;58993;45.320;11.864;2022-07-03T14:50:02;7.00;;;3.80;;
69551;SDS011;58993;45.320;11.864;2022-07-03T14:52:28;5.30;;;4.10;;
69551;SDS011;58993;45.320;11.864;2022-07-03T14:54:55;5.50;;;3.80;;
69551;SDS011;58993;45.320;11.864;2022-07-03T14:57:26;5.90;;;4.10;;
69551;SDS011;58993;45.320;11.864;2022-07-03T15:00:04;6.40;;;4.20;;
69551;SDS011;58993;45.320;11.864;2022-07-03T15:05:22;5.70;;;3.80;;
69551;SDS011;58993;45.320;11.864;2022-07-03T15:10:36;6.90;;;3.80;;
69551;SDS011;58993;45.320;11.864;2022-07-03T15:13:04;6.00;;;3.60;;
69551;SDS011;58993;45.320;11.864;2022-07-03T15:15:31;6.00;;;4.00;;
69551;SDS011;58993;45.320;11.864;2022-07-03T15:17:59;4.40;;;3.60;;
69551;SDS011;58993;45.320;11.864;2022-07-03T15:20:33;5.90;;;4.00;;
69551;SDS011;58993;45.320;11.864;2022-07-03T15:23:00;5.50;;;4.00;;
69551;SDS011;58993;45.320;11.864;2022-07-03T15:25:29;5.90;;;3.60;;
69551;SDS011;58993;45.320;11.864;2022-07-03T15:27:56;4.70;;;3.90;;
69551;SDS011;58993;45.320;11.864;2022-07-03T15:30:23;7.70;;;4.10;;
69551;SDS011;58993;45.320;11.864;2022-07-03T15:32:50;4.60;;;3.80;;
69551;SDS011;58993;45.320;11.864;2022-07-03T15:35:18;5.20;;;3.80;;
69551;SDS011;58993;45.320;11.864;2022-07-03T15:37:54;6.60;;;3.90;;
69551;SDS011;58993;45.320;11.864;2022-07-03T15:40:40;4.80;;;3.50;;
69551;SDS011;58993;45.320;11.864;2022-07-03T15:46:27;5.50;;;3.60;;
69551;SDS011;58993;45.320;11.864;2022-07-03T15:52:29;5.90;;;4.10;;
69551;SDS011;58993;45.320;11.864;2022-07-03T15:55:06;5.40;;;3.80;;
69551;SDS011;58993;45.320;11.864;2022-07-03T15:57:47;7.40;;;4.10;;
69551;SDS011;58993;45.320;11.864;2022-07-03T16:00:19;6.20;;;4.00;;
69551;SDS011;58993;45.320;11.864;2022-07-03T16:05:27;4.90;;;3.70;;
69551;SDS011;58993;45.320;11.864;2022-07-03T16:08:05;4.10;;;3.60;;
69551;SDS011;58993;45.320;11.864;2022-07-03T16:10:33;5.00;;;3.80;;
69551;SDS011;58993;45.320;11.864;2022-07-03T16:13:01;4.60;;;3.70;;
69551;SDS011;58993;45.320;11.864;2022-07-03T16:15:34;4.40;;;4.00;;
69551;SDS011;58993;45.320;11.864;2022-07-03T16:18:01;5.80;;;3.80;;
69551;SDS011;58993;45.320;11.864;2022-07-03T16:20:29;5.50;;;3.40;;
69551;SDS011;58993;45.320;11.864;2022-07-03T16:22:59;4.40;;;3.40;;
69551;SDS011;58993;45.320;11.864;2022-07-03T16:25:31;5.30;;;3.90;;